Time;durP1;ratioP1;P1;durP2;ratioP2;P2;SDS_P1;SDS_P2;PMS_P1;PMS_P2;Temp;Humidity;BMP_temperature;BMP_pressure;BME280_temperature;BME280_humidity;BME280_pressure;Samples;Min_cycle;Max_cycle;Signal;HPM_P1;HPM_P2
2024/01/25 00:03:06;;;;;;;5.63;2.25;;;;;;;17.98;53.17;102149.91;20968574;28;20048;-63
2024/01/25 00:13:08;;;;;;;4.35;1.73;;;;;;;17.96;53.16;102150.03;20973714;28;20047;-62
2024/01/25 00:23:13;;;;;;;7.15;2.33;;;;;;;17.92;53.18;102153.03;21012047;28;20056;-63
2024/01/25 00:33:15;;;;;;;6.72;2.55;;;;;;;17.92;53.19;102174.56;20995160;28;20051;-63
2024/01/25 00:43:17;;;;;;;9.20;2.78;;;;;;;17.91;53.13;102175.53;21001871;28;20051;-63
2024/01/25 00:53:19;;;;;;;5.32;1.90;;;;;;;17.82;52.94;102174.34;21031589;28;20044;-63
2024/01/25 01:03:21;;;;;;;8.45;2.45;;;;;;;17.91;52.92;102179.13;21018364;28;20562;-63
2024/01/25 01:13:23;;;;;;;6.65;2.10;;;;;;;17.93;52.84;102170.91;21006245;28;20040;-63
2024/01/25 01:23:25;;;;;;;6.53;2.33;;;;;;;17.94;52.81;102180.72;20999714;28;20519;-63
2024/01/25 01:33:27;;;;;;;8.85;2.83;;;;;;;17.95;52.70;102204.00;20988350;28;20449;-63
2024/01/25 01:43:29;;;;;;;8.05;2.92;;;;;;;17.89;52.72;102209.81;21000813;27;20649;-64
2024/01/25 01:53:32;;;;;;;7.15;2.47;;;;;;;17.85;52.75;102227.16;20982361;28;20056;-63
2024/01/25 02:03:34;;;;;;;7.10;2.63;;;;;;;17.82;52.85;102231.78;20984908;28;20105;-63
2024/01/25 02:13:36;;;;;;;7.22;2.33;;;;;;;17.80;52.75;102252.56;20982692;28;20511;-64
2024/01/25 02:23:38;;;;;;;7.32;2.65;;;;;;;17.79;52.66;102261.63;20971872;28;20056;-63
2024/01/25 02:33:39;;;;;;;8.77;2.28;;;;;;;17.82;52.68;102288.34;20989136;27;20052;-63
2024/01/25 02:43:41;;;;;;;5.82;2.67;;;;;;;17.80;52.53;102274.13;20990080;28;20048;-63
2024/01/25 02:53:44;;;;;;;7.13;2.25;;;;;;;17.79;52.35;102269.69;20989876;28;20514;-63
2024/01/25 03:03:46;;;;;;;6.63;2.38;;;;;;;17.82;52.26;102265.94;21006214;28;20071;-64
2024/01/25 03:13:48;;;;;;;6.28;2.25;;;;;;;17.82;52.17;102277.59;20979917;28;20127;-63
2024/01/25 03:23:51;;;;;;;5.45;1.92;;;;;;;17.91;51.93;102292.28;20963364;28;20131;-64
2024/01/25 03:33:53;;;;;;;6.32;2.13;;;;;;;17.94;51.64;102301.97;21016016;28;20044;-64
2024/01/25 03:43:55;;;;;;;6.82;1.95;;;;;;;17.93;51.54;102311.03;21020829;28;20048;-64
2024/01/25 03:53:58;;;;;;;6.45;2.25;;;;;;;17.92;51.49;102302.09;21027837;28;20056;-64
2024/01/25 04:03:59;;;;;;;5.80;2.10;;;;;;;17.94;51.31;102288.50;21019890;28;20044;-63
2024/01/25 04:14:02;;;;;;;7.90;2.60;;;;;;;17.92;51.21;102317.38;21005479;27;20052;-64
2024/01/25 04:24:04;;;;;;;7.20;2.15;;;;;;;17.91;51.03;102316.53;21004234;28;20591;-64
2024/01/25 04:34:05;;;;;;;6.03;1.98;;;;;;;17.91;50.69;102329.13;21009343;28;20484;-64
2024/01/25 04:44:07;;;;;;;5.18;1.98;;;;;;;17.89;50.70;102337.28;21020824;28;20121;-63
2024/01/25 04:54:12;;;;;;;7.22;2.88;;;;;;;17.92;50.45;102336.22;20982108;28;20524;-63
2024/01/25 05:04:16;;;;;;;6.50;2.17;;;;;;;17.92;50.18;102342.50;20972549;28;20048;-63
2024/01/25 05:14:18;;;;;;;5.30;1.90;;;;;;;17.87;49.97;102351.84;21017263;28;20464;-63
2024/01/25 05:24:19;;;;;;;5.43;1.90;;;;;;;17.91;50.11;102356.06;21003385;28;20053;-63
2024/01/25 05:34:21;;;;;;;6.78;2.60;;;;;;;17.90;50.01;102357.91;21023671;28;20051;-63
2024/01/25 05:44:23;;;;;;;4.32;1.80;;;;;;;17.82;49.91;102347.63;21029845;28;20044;-63
2024/01/25 05:54:25;;;;;;;4.43;1.83;;;;;;;17.87;49.81;102385.00;21026937;28;20101;-63
2024/01/25 06:04:27;;;;;;;6.68;2.20;;;;;;;17.86;49.83;102391.38;20997067;28;20048;-63
2024/01/25 06:14:29;;;;;;;6.28;2.22;;;;;;;17.87;49.90;102392.25;21020788;28;20520;-63
2024/01/25 06:24:31;;;;;;;9.65;2.70;;;;;;;17.74;49.88;102403.81;21014204;28;20488;-63
2024/01/25 06:34:33;;;;;;;8.43;2.05;;;;;;;17.64;49.97;102413.44;21015967;28;20424;-63
2024/01/25 06:44:35;;;;;;;6.15;2.30;;;;;;;17.61;50.05;102408.25;21008504;28;20060;-63
2024/01/25 06:54:37;;;;;;;7.13;2.25;;;;;;;17.60;50.08;102406.50;21003053;27;20052;-63
2024/01/25 07:04:40;;;;;;;8.30;2.53;;;;;;;17.58;50.01;102408.44;20967851;28;20044;-64
2024/01/25 07:14:43;;;;;;;4.87;1.97;;;;;;;17.61;49.91;102398.34;21003189;27;20054;-62
2024/01/25 07:24:45;;;;;;;6.05;2.63;;;;;;;17.78;49.68;102407.16;20989042;28;20080;-66
2024/01/25 07:34:47;;;;;;;6.47;2.25;;;;;;;17.78;48.95;102408.06;20976485;28;20052;-66
2024/01/25 07:44:48;;;;;;;4.97;1.77;;;;;;;17.98;48.75;102438.22;20978673;28;20887;-66
2024/01/25 07:54:53;;;;;;;7.10;2.00;;;;;;;18.07;48.43;102437.63;20959356;28;20540;-66
2024/01/25 08:04:57;;;;;;;6.07;1.80;;;;;;;18.19;48.34;102433.28;20972866;28;20060;-66
2024/01/25 08:14:59;;;;;;;6.10;2.37;;;;;;;18.35;48.14;102441.22;20977914;28;20555;-66
2024/01/25 08:25:01;;;;;;;6.30;2.33;;;;;;;18.49;47.81;102450.22;20981596;28;20275;-66
2024/01/25 08:35:03;;;;;;;5.43;2.33;;;;;;;18.62;47.55;102450.28;21010420;28;20052;-66
2024/01/25 08:45:08;;;;;;;7.30;2.40;;;;;;;18.69;47.70;102465.94;20998715;28;20100;-66
2024/01/25 08:55:10;;;;;;;6.30;2.10;;;;;;;18.74;47.61;102473.72;20986071;28;20048;-66
2024/01/25 09:05:12;;;;;;;5.72;2.45;;;;;;;18.81;47.46;102488.53;21009926;27;20048;-66
2024/01/25 09:15:18;;;;;;;7.15;2.28;;;;;;;18.86;47.34;102479.28;21009725;28;20492;-66
2024/01/25 09:25:20;;;;;;;5.32;1.75;;;;;;;18.94;47.45;102493.94;20954195;28;20051;-66
2024/01/25 09:35:22;;;;;;;4.47;1.65;;;;;;;19.05;47.32;102487.00;20990172;28;20074;-66
2024/01/25 09:45:24;;;;;;;5.93;2.78;;;;;;;18.98;47.34;102479.31;20986235;28;20067;-66
2024/01/25 09:55:26;;;;;;;6.63;2.50;;;;;;;19.10;47.40;102480.31;21013429;28;20567;-66
2024/01/25 10:05:28;;;;;;;4.65;2.40;;;;;;;19.12;47.65;102480.22;21014714;28;20756;-67
2024/01/25 10:15:30;;;;;;;6.35;2.28;;;;;;;19.15;48.13;102481.81;20969094;27;20048;-66
2024/01/25 10:25:36;;;;;;;6.32;2.38;;;;;;;19.20;48.94;102488.66;20974766;28;20051;-66
2024/01/25 10:35:41;;;;;;;6.22;2.20;;;;;;;19.39;49.21;102473.84;21008621;28;20048;-66
2024/01/25 10:45:43;;;;;;;5.83;2.33;;;;;;;19.52;49.39;102472.03;20999131;27;20344;-65
2024/01/25 10:55:45;;;;;;;5.78;2.50;;;;;;;19.65;49.04;102447.69;20989706;27;20048;-65
2024/01/25 11:05:48;;;;;;;6.40;2.25;;;;;;;19.73;49.07;102433.63;20979178;28;20056;-66
2024/01/25 11:15:50;;;;;;;6.97;2.60;;;;;;;19.89;48.72;102443.34;20979352;28;20055;-66
2024/01/25 11:25:54;;;;;;;6.93;2.83;;;;;;;19.95;48.25;102424.00;20982135;28;20564;-66
2024/01/25 11:35:56;;;;;;;7.20;2.83;;;;;;;20.05;48.21;102414.22;21004788;28;20040;-66
2024/01/25 11:45:58;;;;;;;7.78;3.22;;;;;;;19.98;48.25;102407.56;20966517;28;20086;-65
2024/01/25 11:56:00;;;;;;;7.18;2.58;;;;;;;19.94;48.28;102366.34;20970787;28;20055;-66
2024/01/25 12:06:04;;;;;;;6.03;2.40;;;;;;;19.94;48.28;102366.34;21005216;28;20048;-66
2024/01/25 12:16:07;;;;;;;6.47;2.50;;;;;;;19.86;48.30;102361.47;21015539;27;20048;-66
2024/01/25 12:26:10;;;;;;;6.68;2.42;;;;;;;19.76;48.39;102352.34;20999361;27;20052;-66
2024/01/25 12:36:15;;;;;;;7.15;2.55;;;;;;;19.74;48.37;102359.69;21009978;28;20056;-65
2024/01/25 12:46:17;;;;;;;7.75;2.30;;;;;;;19.71;48.41;102368.03;20998754;28;20044;-66
2024/01/25 12:56:28;;;;;;;5.28;2.33;;;;;;;19.69;48.43;102356.47;20995373;28;20135;-66
2024/01/25 13:06:30;;;;;;;7.50;2.60;;;;;;;19.62;48.78;102333.59;20981899;28;20130;-66
2024/01/25 13:16:32;;;;;;;5.20;2.08;;;;;;;19.58;48.67;102335.63;20981669;28;20058;-66
2024/01/25 13:26:35;;;;;;;6.15;2.30;;;;;;;19.56;48.63;102327.66;20979250;28;20090;-65
2024/01/25 13:36:37;;;;;;;6.35;2.40;;;;;;;19.28;49.05;102264.84;21001694;28;20056;-65
2024/01/25 13:46:39;;;;;;;6.20;2.42;;;;;;;19.48;49.12;102297.66;21028142;27;20135;-67
2024/01/25 13:56:41;;;;;;;5.55;2.30;;;;;;;19.53;49.40;102316.22;20983616;28;20050;-67
2024/01/25 14:06:42;;;;;;;6.70;2.33;;;;;;;19.54;49.79;102301.72;20974225;28;20059;-67
2024/01/25 14:16:45;;;;;;;6.22;2.20;;;;;;;19.57;49.71;102290.69;20964450;28;20044;-66
2024/01/25 14:26:47;;;;;;;3.67;1.90;;;;;;;19.60;49.82;102276.09;20955980;28;20087;-66
2024/01/25 14:36:50;;;;;;;4.60;2.13;;;;;;;19.61;49.83;102257.06;20976950;28;20044;-66
2024/01/25 14:46:52;;;;;;;5.40;2.25;;;;;;;19.60;49.90;102246.41;20976084;28;20051;-68
2024/01/25 14:56:54;;;;;;;5.80;1.95;;;;;;;19.60;49.92;102252.63;20982762;28;20072;-68
2024/01/25 15:06:57;;;;;;;5.60;2.20;;;;;;;19.58;49.94;102232.13;20965751;28;20056;-67
2024/01/25 15:16:59;;;;;;;5.05;1.90;;;;;;;19.59;49.96;102231.16;20977042;28;20048;-66
2024/01/25 15:27:05;;;;;;;6.03;2.17;;;;;;;19.54;50.01;102224.28;20982438;28;20044;-69
2024/01/25 15:37:07;;;;;;;5.80;2.35;;;;;;;19.53;50.04;102211.75;20960371;28;20155;-67
2024/01/25 15:47:09;;;;;;;5.60;2.55;;;;;;;19.55;50.33;102211.59;20977106;28;20048;-69
2024/01/25 15:57:11;;;;;;;8.25;2.25;;;;;;;19.54;50.80;102191.84;21006282;28;20085;-67
2024/01/25 16:07:12;;;;;;;9.68;3.53;;;;;;;19.54;51.38;102180.19;20993981;28;20056;-67
2024/01/25 16:17:15;;;;;;;10.95;4.00;;;;;;;19.60;51.70;102179.72;20987143;28;20481;-69
2024/01/25 16:27:16;;;;;;;7.88;2.85;;;;;;;19.76;54.66;102176.69;20996267;28;20409;-69
2024/01/25 16:37:18;;;;;;;7.35;3.00;;;;;;;19.83;56.81;102164.44;20982831;28;20097;-69
2024/01/25 16:47:20;;;;;;;8.25;3.08;;;;;;;19.74;57.21;102159.75;20985897;28;20455;-65
2024/01/25 16:57:22;;;;;;;9.07;3.20;;;;;;;19.53;57.59;102165.81;20971317;28;20098;-65
2024/01/25 17:07:24;;;;;;;9.15;2.92;;;;;;;19.39;57.37;102168.69;20984186;28;20530;-64
2024/01/25 17:17:26;;;;;;;7.85;3.15;;;;;;;19.35;57.05;102169.91;20961478;28;20047;-63
2024/01/25 17:27:28;;;;;;;8.82;2.58;;;;;;;19.24;56.98;102168.88;20987187;28;20165;-65
2024/01/25 17:37:30;;;;;;;7.28;2.70;;;;;;;19.19;56.90;102153.97;20996154;28;20139;-66
2024/01/25 17:47:32;;;;;;;6.68;2.80;;;;;;;19.13;56.54;102142.66;20972194;28;20052;-65
2024/01/25 17:57:34;;;;;;;6.15;2.60;;;;;;;19.09;56.44;102140.31;20985052;28;20056;-65
2024/01/25 18:07:36;;;;;;;8.82;2.65;;;;;;;19.04;56.44;102146.06;20989826;28;20140;-65
2024/01/25 18:17:38;;;;;;;6.22;2.30;;;;;;;19.03;56.35;102135.38;20992660;28;20052;-68
2024/01/25 18:27:41;;;;;;;7.40;3.05;;;;;;;18.98;56.26;102131.16;20999342;28;20600;-65
2024/01/25 18:37:44;;;;;;;8.23;3.47;;;;;;;18.88;56.87;102118.47;21001006;28;20492;-66
2024/01/25 18:47:47;;;;;;;7.30;2.85;;;;;;;18.60;56.69;102088.97;20979409;28;20048;-65
2024/01/25 18:57:49;;;;;;;6.70;3.25;;;;;;;18.64;56.47;102101.25;20999604;28;20059;-66
2024/01/25 19:07:54;;;;;;;7.35;3.00;;;;;;;18.57;56.38;102094.59;20987013;28;20044;-66
2024/01/25 19:17:55;;;;;;;6.77;2.90;;;;;;;18.54;56.19;102084.00;20983343;28;20054;-66
2024/01/25 19:27:57;;;;;;;7.07;2.58;;;;;;;18.48;56.16;102063.75;20995346;28;20056;-67
2024/01/25 19:37:59;;;;;;;6.65;2.97;;;;;;;18.40;56.07;102056.22;20986611;28;20143;-66
2024/01/25 19:48:01;;;;;;;5.65;2.67;;;;;;;18.34;56.15;102043.19;20994198;28;20044;-66
2024/01/25 19:58:03;;;;;;;5.43;2.97;;;;;;;18.33;56.03;102022.59;20999998;28;20446;-66
2024/01/25 20:08:06;;;;;;;8.93;4.70;;;;;;;18.19;59.99;102009.28;20990796;28;20040;-66
2024/01/25 20:18:07;;;;;;;8.25;3.75;;;;;;;18.24;59.86;101990.91;20986633;28;20492;-66
2024/01/25 20:28:09;;;;;;;8.98;4.07;;;;;;;18.26;59.75;101997.06;20997124;28;20134;-66
2024/01/25 20:38:11;;;;;;;6.25;3.22;;;;;;;18.26;59.77;101975.50;21026746;28;20507;-66
2024/01/25 20:48:13;;;;;;;7.47;3.65;;;;;;;18.26;59.80;101967.41;20993231;28;20044;-67
2024/01/25 20:58:15;;;;;;;5.85;3.00;;;;;;;18.24;59.67;101967.50;20994980;28;20416;-66
2024/01/25 21:08:17;;;;;;;5.38;3.13;;;;;;;18.22;59.58;101949.75;21016967;28;20109;-66
2024/01/25 21:18:19;;;;;;;4.38;2.90;;;;;;;18.20;59.56;101943.59;20989564;28;20485;-66
2024/01/25 21:28:21;;;;;;;5.10;3.25;;;;;;;18.18;59.44;101937.47;21013158;28;20488;-66
2024/01/25 21:38:23;;;;;;;4.50;2.95;;;;;;;18.17;59.31;101923.13;20984119;28;20413;-66
2024/01/25 21:48:25;;;;;;;4.25;2.80;;;;;;;18.18;59.22;101921.31;20973567;28;20503;-67
2024/01/25 21:58:27;;;;;;;4.55;2.50;;;;;;;18.15;59.12;101916.97;21002000;28;20052;-67
2024/01/25 22:08:29;;;;;;;3.15;2.25;;;;;;;18.14;58.83;101909.88;20993439;28;20048;-67
2024/01/25 22:18:31;;;;;;;2.67;2.13;;;;;;;18.13;58.97;101905.47;21015557;27;20056;-66
2024/01/25 22:28:33;;;;;;;3.60;2.40;;;;;;;18.13;58.91;101891.13;20988126;28;20129;-66
2024/01/25 22:38:34;;;;;;;2.90;1.90;;;;;;;18.07;59.04;101870.88;20971924;28;20101;-66
2024/01/25 22:48:36;;;;;;;4.05;2.28;;;;;;;18.04;59.27;101876.50;20996374;28;20072;-66
2024/01/25 22:58:38;;;;;;;2.70;2.13;;;;;;;18.03;59.30;101864.00;20989383;28;20059;-66
2024/01/25 23:08:40;;;;;;;3.00;1.90;;;;;;;18.05;59.29;101862.06;20994159;28;20067;-66
2024/01/25 23:18:42;;;;;;;3.47;2.33;;;;;;;18.07;59.14;101876.28;21009778;28;20052;-66
2024/01/25 23:28:44;;;;;;;2.33;1.85;;;;;;;18.13;58.98;101853.41;20998838;28;20565;-66
2024/01/25 23:38:46;;;;;;;2.55;2.00;;;;;;;18.16;59.06;101853.19;21007665;28;20050;-66
2024/01/25 23:48:48;;;;;;;2.45;2.15;;;;;;;18.20;59.00;101849.28;20977132;28;20492;-66
2024/01/25 23:58:50;;;;;;;2.08;1.80;;;;;;;18.25;58.77;101844.41;20985598;28;20048;-66
